createdAt,value
2022-08-05T00:01:55.684Z,8.00
2022-08-05T00:04:37.039Z,7.50
2022-08-05T00:07:27.328Z,8.50
2022-08-05T00:09:54.595Z,8.03
2022-08-05T00:12:24.858Z,8.50
2022-08-05T00:14:53.546Z,8.37
2022-08-05T00:17:22.304Z,7.47
2022-08-05T00:20:01.923Z,8.73
2022-08-05T00:22:31.567Z,8.70
2022-08-05T00:25:00.294Z,8.70
2022-08-05T00:27:36.087Z,7.97
2022-08-05T00:30:11.456Z,8.50
2022-08-05T00:32:40.562Z,8.43
2022-08-05T00:35:10.122Z,8.23
2022-08-05T00:37:52.347Z,8.33
2022-08-05T00:40:27.750Z,8.83
2022-08-05T00:43:00.806Z,7.60
2022-08-05T00:45:38.484Z,8.00
2022-08-05T00:48:12.914Z,9.03
2022-08-05T00:50:45.823Z,9.07
2022-08-05T00:54:01.085Z,8.50
2022-08-05T00:58:45.531Z,10.20
2022-08-05T01:01:16.019Z,9.00
2022-08-05T01:04:13.922Z,8.37
2022-08-05T01:06:47.880Z,9.60
2022-08-05T01:09:20.017Z,8.87
2022-08-05T01:11:51.895Z,8.60
2022-08-05T01:14:27.898Z,9.57
2022-08-05T01:17:03.342Z,9.77
2022-08-05T01:20:02.214Z,8.60
2022-08-05T01:22:42.158Z,9.60
2022-08-05T01:25:40.647Z,9.40
2022-08-05T01:28:21.477Z,9.60
2022-08-05T01:30:55.524Z,9.13
2022-08-05T01:33:35.594Z,9.27
2022-08-05T01:36:13.163Z,9.97
2022-08-05T01:38:48.522Z,9.93
2022-08-05T01:41:25.787Z,9.17
2022-08-05T01:43:57.794Z,10.40
2022-08-05T01:46:42.487Z,10.23
2022-08-05T01:49:23.420Z,9.70
2022-08-05T01:51:58.151Z,9.63
2022-08-05T01:54:31.401Z,9.70
2022-08-05T01:58:11.253Z,10.73
2022-08-05T01:59:55.051Z,9.30
2022-08-05T02:02:28.394Z,10.33
2022-08-05T02:05:03.057Z,10.20
2022-08-05T02:07:33.746Z,9.83
2022-08-05T02:10:04.580Z,10.57
2022-08-05T02:12:44.514Z,10.37
2022-08-05T02:15:31.155Z,10.60
2022-08-05T02:18:28.706Z,10.40
2022-08-05T02:21:00.422Z,10.70
2022-08-05T02:23:35.754Z,9.47
2022-08-05T02:26:08.931Z,10.10
2022-08-05T02:28:45.807Z,9.30
2022-08-05T02:31:21.420Z,11.10
2022-08-05T02:33:57.783Z,9.60
2022-08-05T02:36:31.437Z,10.80
2022-08-05T02:39:03.349Z,11.87
2022-08-05T02:41:42.937Z,10.50
2022-08-05T02:44:25.391Z,10.20
2022-08-05T02:47:00.181Z,11.40
2022-08-05T02:49:36.842Z,10.80
2022-08-05T02:52:11.579Z,11.07
2022-08-05T02:54:51.171Z,11.03
2022-08-05T02:58:09.832Z,11.20
2022-08-05T03:00:14.510Z,11.00
2022-08-05T03:02:47.641Z,10.40
2022-08-05T03:05:17.649Z,10.93
2022-08-05T03:08:04.526Z,11.00
2022-08-05T03:10:36.707Z,9.53
2022-08-05T03:13:16.570Z,10.87
2022-08-05T03:15:46.428Z,11.47
2022-08-05T03:18:17.425Z,11.00
2022-08-05T03:20:48.630Z,11.40
2022-08-05T03:23:18.131Z,11.50
2022-08-05T03:26:04.932Z,10.43
2022-08-05T03:28:35.913Z,9.93
2022-08-05T03:31:06.716Z,11.03
2022-08-05T03:33:51.043Z,11.07
2022-08-05T03:36:30.440Z,9.90
2022-08-05T03:38:59.730Z,11.10
2022-08-05T03:41:33.156Z,11.67
2022-08-05T03:44:11.664Z,10.80
2022-08-05T03:46:40.836Z,10.80
2022-08-05T03:49:10.960Z,10.00
2022-08-05T03:52:38.780Z,10.90
2022-08-05T03:55:54.023Z,10.40
2022-08-05T03:57:42.268Z,11.30
2022-08-05T04:00:16.038Z,10.90
2022-08-05T04:02:57.519Z,10.70
2022-08-05T04:05:34.004Z,11.33
2022-08-05T04:08:05.865Z,10.47
2022-08-05T04:10:45.514Z,10.30
2022-08-05T04:13:14.434Z,10.90
2022-08-05T04:16:03.095Z,10.77
2022-08-05T04:18:34.448Z,10.77
2022-08-05T04:21:11.024Z,10.87
2022-08-05T04:23:57.197Z,10.07
2022-08-05T04:26:32.427Z,9.93
2022-08-05T04:29:07.153Z,10.87
2022-08-05T04:31:38.719Z,11.20
2022-08-05T04:34:31.217Z,11.13
2022-08-05T04:36:58.475Z,10.70
2022-08-05T04:39:27.608Z,10.20
2022-08-05T04:41:56.784Z,10.87
2022-08-05T04:44:29.954Z,10.43
2022-08-05T04:46:59.566Z,11.13
2022-08-05T04:49:38.584Z,10.30
2022-08-05T04:52:18.691Z,9.93
2022-08-05T04:54:47.523Z,10.40
2022-08-05T04:57:18.224Z,10.97
2022-08-05T04:59:47.950Z,10.03
2022-08-05T05:02:37.019Z,10.80
2022-08-05T05:05:26.006Z,10.50
2022-08-05T05:08:01.872Z,10.80
2022-08-05T05:10:33.503Z,10.93
2022-08-05T05:13:03.950Z,10.53
2022-08-05T05:15:56.890Z,10.60
2022-08-05T05:18:31.627Z,10.70
2022-08-05T05:21:03.819Z,9.67
2022-08-05T05:23:39.007Z,10.67
2022-08-05T05:26:28.778Z,11.33
2022-08-05T05:29:14.478Z,10.40
2022-08-05T05:31:46.342Z,10.70
2022-08-05T05:34:15.563Z,11.20
2022-08-05T05:36:45.701Z,10.43
2022-08-05T05:39:19.123Z,11.37
2022-08-05T05:41:54.552Z,10.53
2022-08-05T05:44:37.561Z,9.93
2022-08-05T05:47:21.619Z,10.00
2022-08-05T05:49:56.484Z,10.97
2022-08-05T05:52:30.058Z,10.80
2022-08-05T05:55:07.405Z,10.10
2022-08-05T05:57:52.963Z,9.40
2022-08-05T06:00:31.528Z,10.83
2022-08-05T06:03:03.564Z,9.80
2022-08-05T06:05:54.028Z,9.63
2022-08-05T06:08:32.415Z,10.67
2022-08-05T06:11:04.043Z,10.00
2022-08-05T06:13:40.595Z,9.60
2022-08-05T06:16:29.591Z,10.73
2022-08-05T06:19:05.661Z,9.60
2022-08-05T06:21:38.301Z,9.77
2022-08-05T06:24:11.750Z,9.60
2022-08-05T06:26:52.238Z,10.40
2022-08-05T06:29:42.896Z,9.60
2022-08-05T06:32:20.984Z,9.60
2022-08-05T06:34:56.311Z,9.10
2022-08-05T06:37:57.700Z,8.90
2022-08-05T06:40:18.539Z,8.30
2022-08-05T06:42:52.811Z,8.90
2022-08-05T06:45:44.108Z,8.60
2022-08-05T06:48:53.711Z,8.07
2022-08-05T06:51:00.395Z,8.90
2022-08-05T06:53:29.553Z,7.87
2022-08-05T06:55:59.709Z,8.00
2022-08-05T06:58:36.422Z,9.77
2022-08-05T07:01:07.758Z,7.53
2022-08-05T07:03:36.745Z,7.70
2022-08-05T07:06:14.399Z,8.10
2022-08-05T07:08:48.030Z,7.00
2022-08-05T07:11:22.513Z,7.45
2022-08-05T07:14:20.657Z,6.72
2022-08-05T07:18:00.541Z,7.65
2022-08-05T07:22:42.231Z,7.45
2022-08-05T07:25:54.417Z,7.28
2022-08-05T07:28:04.109Z,6.75
2022-08-05T07:30:39.904Z,7.40
2022-08-05T07:33:16.636Z,7.18
2022-08-05T07:36:02.996Z,7.85
2022-08-05T07:38:42.785Z,5.95
2022-08-05T07:41:35.183Z,6.82
2022-08-05T07:44:03.005Z,6.68
2022-08-05T07:46:34.956Z,7.22
2022-08-05T07:49:07.852Z,7.15
2022-08-05T07:51:48.946Z,6.82
2022-08-05T07:54:30.246Z,6.20
2022-08-05T07:57:13.611Z,7.57
2022-08-05T07:59:49.019Z,6.75
2022-08-05T08:02:19.712Z,5.97
2022-08-05T08:04:56.319Z,6.68
2022-08-05T08:07:28.438Z,6.60
2022-08-05T08:09:57.919Z,6.25
2022-08-05T08:12:38.071Z,6.55
2022-08-05T08:15:16.221Z,5.65
2022-08-05T08:17:52.411Z,5.97
2022-08-05T08:20:45.256Z,5.90
2022-08-05T08:24:02.165Z,5.60
2022-08-05T08:26:04.424Z,6.05
2022-08-05T08:28:35.746Z,5.32
2022-08-05T08:31:07.292Z,5.90
2022-08-05T08:33:38.531Z,5.35
2022-08-05T08:38:57.591Z,7.35
2022-08-05T08:41:50.806Z,5.32
2022-08-05T08:45:20.003Z,5.75
2022-08-05T08:47:46.970Z,5.22
2022-08-05T08:50:23.196Z,5.70
2022-08-05T08:52:55.799Z,5.10
2022-08-05T08:56:02.948Z,5.28
2022-08-05T08:58:16.485Z,5.03
2022-08-05T09:00:45.702Z,5.00
2022-08-05T09:03:16.309Z,5.80
2022-08-05T09:06:08.531Z,5.47
2022-08-05T09:08:40.621Z,4.57
2022-08-05T09:11:12.144Z,5.00
2022-08-05T09:14:01.246Z,4.90
2022-08-05T09:16:33.178Z,4.72
2022-08-05T09:19:06.858Z,4.65
2022-08-05T09:22:17.785Z,4.80
2022-08-05T09:24:26.212Z,4.80
2022-08-05T09:26:58.777Z,4.72
2022-08-05T09:29:47.586Z,4.43
2022-08-05T09:32:51.370Z,4.55
2022-08-05T09:35:26.683Z,3.75
2022-08-05T09:38:16.648Z,4.45
2022-08-05T09:40:52.459Z,4.63
2022-08-05T09:43:40.526Z,4.50
2022-08-05T09:46:28.450Z,4.38
2022-08-05T09:49:07.637Z,4.13
2022-08-05T09:51:49.418Z,3.72
2022-08-05T09:54:32.420Z,3.92
2022-08-05T09:57:01.971Z,4.18
2022-08-05T09:59:35.016Z,3.80
2022-08-05T10:02:06.794Z,4.40
2022-08-05T10:04:39.429Z,4.43
2022-08-05T10:07:20.405Z,3.85
2022-08-05T10:10:04.415Z,3.75
2022-08-05T10:12:49.804Z,3.67
2022-08-05T10:15:25.629Z,3.70
2022-08-05T10:18:16.864Z,3.63
2022-08-05T10:20:48.846Z,4.05
2022-08-05T10:23:34.494Z,3.50
2022-08-05T10:26:13.809Z,3.47
2022-08-05T10:28:44.981Z,3.63
2022-08-05T10:32:47.374Z,3.50
2022-08-05T10:34:08.012Z,3.63
2022-08-05T10:36:38.403Z,5.00
2022-08-05T10:39:11.847Z,3.42
2022-08-05T10:42:01.200Z,3.30
2022-08-05T10:44:32.801Z,3.38
2022-08-05T10:47:26.289Z,3.50
2022-08-05T10:50:20.453Z,3.28
2022-08-05T10:52:58.588Z,3.30
2022-08-05T10:55:32.901Z,3.25
2022-08-05T10:58:20.938Z,2.88
2022-08-05T11:00:55.101Z,3.00
2022-08-05T11:03:33.659Z,3.00
2022-08-05T11:06:15.913Z,3.30
2022-08-05T11:09:17.248Z,2.85
2022-08-05T11:11:53.386Z,2.90
2022-08-05T11:14:57.541Z,2.90
2022-08-05T11:17:59.345Z,3.15
2022-08-05T11:20:43.841Z,4.00
2022-08-05T11:24:02.930Z,3.67
2022-08-05T11:26:32.438Z,2.72
2022-08-05T11:29:12.668Z,3.15
2022-08-05T11:31:57.072Z,3.25
2022-08-05T11:34:50.766Z,2.97
2022-08-05T11:38:28.943Z,2.90
2022-08-05T11:41:01.317Z,3.40
2022-08-05T11:44:04.968Z,2.85
2022-08-05T11:46:37.804Z,3.17
2022-08-05T11:49:28.058Z,2.88
2022-08-05T11:51:57.516Z,3.38
2022-08-05T11:54:32.677Z,3.40
2022-08-05T11:57:08.095Z,3.25
2022-08-05T11:59:42.090Z,2.70
2022-08-05T12:02:24.012Z,3.92
2022-08-05T12:05:07.405Z,2.60
2022-08-05T12:08:07.567Z,3.00
2022-08-05T12:10:38.517Z,2.53
2022-08-05T12:13:47.486Z,2.65
2022-08-05T12:16:14.692Z,2.72
2022-08-05T12:18:48.960Z,2.60
2022-08-05T12:21:26.608Z,3.03
2022-08-05T12:24:04.630Z,2.50
2022-08-05T12:26:36.270Z,2.55
2022-08-05T12:29:09.853Z,3.10
2022-08-05T12:31:53.602Z,2.42
2022-08-05T12:34:26.979Z,2.63
2022-08-05T12:36:58.447Z,2.72
2022-08-05T12:39:37.235Z,2.63
2022-08-05T12:42:14.684Z,3.05
2022-08-05T12:44:44.776Z,2.65
2022-08-05T12:47:17.280Z,2.92
2022-08-05T12:50:03.594Z,2.70
2022-08-05T12:52:38.673Z,2.60
2022-08-05T12:55:22.333Z,2.83
2022-08-05T12:58:50.215Z,2.47
2022-08-05T13:02:03.206Z,2.78
2022-08-05T13:03:41.371Z,2.78
2022-08-05T13:06:17.685Z,2.65
2022-08-05T13:08:51.912Z,2.83
2022-08-05T13:11:59.709Z,2.72
2022-08-05T13:14:20.217Z,2.15
2022-08-05T13:16:56.839Z,2.92
2022-08-05T13:19:27.363Z,2.45
2022-08-05T13:22:29.515Z,3.08
2022-08-05T13:25:05.650Z,2.38
2022-08-05T13:27:39.597Z,2.85
2022-08-05T13:30:35.950Z,2.75
2022-08-05T13:33:01.185Z,3.10
2022-08-05T13:35:43.238Z,2.72
2022-08-05T13:38:28.120Z,2.40
2022-08-05T13:41:05.926Z,2.58
2022-08-05T13:43:43.391Z,3.00
2022-08-05T13:46:30.792Z,2.85
2022-08-05T13:49:13.249Z,2.83
2022-08-05T13:51:46.139Z,2.63
2022-08-05T13:54:21.198Z,2.80
2022-08-05T13:56:56.919Z,2.85
2022-08-05T13:59:31.511Z,3.10
2022-08-05T14:02:19.754Z,2.70
2022-08-05T14:05:11.470Z,2.63
2022-08-05T14:08:05.549Z,2.92
2022-08-05T14:10:37.474Z,2.90
2022-08-05T14:13:23.530Z,2.40
2022-08-05T14:16:06.817Z,3.05
2022-08-05T14:18:38.853Z,3.50
2022-08-05T14:22:08.219Z,4.22
2022-08-05T14:23:56.739Z,2.90
2022-08-05T14:26:38.328Z,2.50
2022-08-05T14:29:16.737Z,2.38
2022-08-05T14:32:02.749Z,2.65
2022-08-05T14:34:35.849Z,2.50
2022-08-05T14:37:05.599Z,2.85
2022-08-05T14:39:49.943Z,2.92
2022-08-05T14:42:29.496Z,2.97
2022-08-05T14:45:00.290Z,2.95
2022-08-05T14:48:04.270Z,2.60
2022-08-05T14:50:19.438Z,2.90
2022-08-05T14:52:58.501Z,2.70
2022-08-05T14:55:38.509Z,3.00
2022-08-05T14:58:13.659Z,2.80
2022-08-05T15:00:59.779Z,3.03
2022-08-05T15:03:33.769Z,2.60
2022-08-05T15:06:14.977Z,2.67
2022-08-05T15:08:57.724Z,2.50
2022-08-05T15:11:52.845Z,3.13
2022-08-05T15:14:33.952Z,2.78
2022-08-05T15:17:09.876Z,2.97
2022-08-05T15:19:56.415Z,3.60
2022-08-05T15:22:27.236Z,3.13
2022-08-05T15:24:59.423Z,2.97
2022-08-05T15:27:35.931Z,2.97
2022-08-05T15:30:06.782Z,2.85
2022-08-05T15:32:37.177Z,3.65
2022-08-05T15:35:10.850Z,2.80
2022-08-05T15:38:33.474Z,2.92
2022-08-05T15:40:58.221Z,3.53
2022-08-05T15:43:21.701Z,3.10
2022-08-05T15:46:00.551Z,3.40
2022-08-05T15:48:31.977Z,3.50
2022-08-05T15:51:03.405Z,4.63
2022-08-05T15:53:38.272Z,3.65
2022-08-05T15:56:20.294Z,3.55
2022-08-05T15:58:50.217Z,3.25
2022-08-05T16:01:20.197Z,3.50
2022-08-05T16:03:59.625Z,3.45
2022-08-05T16:06:28.661Z,3.97
2022-08-05T16:08:59.060Z,10.13
2022-08-05T16:11:39.889Z,3.53
2022-08-05T16:14:09.708Z,3.75
2022-08-05T16:16:38.784Z,4.82
2022-08-05T16:19:09.830Z,3.30
2022-08-05T16:22:01.003Z,3.75
2022-08-05T16:24:39.800Z,3.40
2022-08-05T16:27:16.076Z,3.38
2022-08-05T16:29:50.258Z,3.40
2022-08-05T16:32:28.740Z,3.55
2022-08-05T16:35:00.258Z,4.20
2022-08-05T16:38:16.768Z,3.30
2022-08-05T16:40:26.633Z,3.25
2022-08-05T16:42:58.823Z,3.20
2022-08-05T16:46:07.209Z,3.38
2022-08-05T16:48:25.568Z,3.35
2022-08-05T16:50:56.600Z,3.67
2022-08-05T16:53:32.032Z,3.88
2022-08-05T16:56:14.684Z,3.50
2022-08-05T16:58:43.719Z,4.53
2022-08-05T17:01:12.945Z,4.38
2022-08-05T17:03:42.054Z,4.38
2022-08-05T17:06:13.320Z,4.85
2022-08-05T17:08:53.048Z,4.80
2022-08-05T17:11:25.354Z,4.07
2022-08-05T17:14:05.665Z,4.55
2022-08-05T17:16:37.228Z,5.35
2022-08-05T17:19:09.609Z,6.13
2022-08-05T17:21:41.023Z,4.95
2022-08-05T17:24:34.962Z,4.15
2022-08-05T17:27:08.507Z,5.25
2022-08-05T17:29:41.045Z,4.28
2022-08-05T17:32:17.285Z,4.60
2022-08-05T17:34:55.710Z,4.57
2022-08-05T17:37:40.419Z,4.40
2022-08-05T17:40:14.503Z,4.70
2022-08-05T17:42:50.759Z,5.22
2022-08-05T17:45:22.283Z,4.65
2022-08-05T17:47:54.884Z,4.30
2022-08-05T17:50:28.315Z,4.82
2022-08-05T17:53:00.955Z,4.38
2022-08-05T17:55:37.523Z,5.15
2022-08-05T17:58:14.466Z,5.10
2022-08-05T18:00:47.266Z,5.20
2022-08-05T18:06:12.018Z,4.88
2022-08-05T18:08:45.061Z,5.00
2022-08-05T18:11:24.132Z,4.00
2022-08-05T18:13:55.462Z,4.73
2022-08-05T18:16:24.479Z,4.63
2022-08-05T18:18:53.280Z,5.03
2022-08-05T18:21:26.103Z,6.77
2022-08-05T18:23:58.588Z,4.95
2022-08-05T18:26:29.560Z,5.27
2022-08-05T18:29:01.230Z,5.10
2022-08-05T18:31:32.975Z,8.20
2022-08-05T18:34:05.962Z,5.63
2022-08-05T18:36:36.839Z,5.70
2022-08-05T18:39:22.641Z,6.50
2022-08-05T18:42:03.566Z,6.80
2022-08-05T18:44:49.273Z,6.83
2022-08-05T18:47:26.547Z,6.57
2022-08-05T18:50:15.774Z,7.03
2022-08-05T18:52:50.864Z,7.60
2022-08-05T18:55:22.420Z,8.33
2022-08-05T18:57:53.889Z,8.67
2022-08-05T19:00:29.080Z,9.13
2022-08-05T19:03:03.621Z,9.40
2022-08-05T19:06:11.915Z,8.90
2022-08-05T19:08:30.562Z,8.40
2022-08-05T19:11:16.294Z,8.13
2022-08-05T19:14:01.140Z,7.73
2022-08-05T19:16:46.816Z,8.63
2022-08-05T19:19:21.024Z,7.27
2022-08-05T19:21:51.686Z,8.10
2022-08-05T19:24:34.568Z,8.50
2022-08-05T19:27:08.813Z,7.70
2022-08-05T19:29:40.160Z,7.80
2022-08-05T19:32:13.077Z,7.10
2022-08-05T19:34:54.625Z,7.03
2022-08-05T19:37:29.913Z,7.63
2022-08-05T19:40:15.040Z,8.20
2022-08-05T19:43:04.890Z,7.60
2022-08-05T19:45:38.475Z,7.17
2022-08-05T19:48:24.914Z,7.00
2022-08-05T19:50:55.624Z,7.37
2022-08-05T19:54:05.399Z,6.70
2022-08-05T19:56:29.892Z,7.57
2022-08-05T19:59:53.842Z,6.93
2022-08-05T20:01:57.174Z,6.67
2022-08-05T20:04:27.360Z,6.90
2022-08-05T20:06:57.356Z,6.80
2022-08-05T20:09:26.314Z,6.90
2022-08-05T20:12:03.451Z,6.10
2022-08-05T20:14:36.974Z,6.17
2022-08-05T20:17:10.412Z,6.50
2022-08-05T20:19:48.923Z,6.50
2022-08-05T20:22:24.358Z,5.50
2022-08-05T20:24:56.436Z,6.10
2022-08-05T20:27:27.383Z,8.50
2022-08-05T20:30:14.048Z,6.30
2022-08-05T20:32:49.012Z,6.33
2022-08-05T20:35:18.373Z,5.80
2022-08-05T20:38:06.479Z,5.70
2022-08-05T20:40:39.194Z,5.70
2022-08-05T20:43:12.347Z,5.40
2022-08-05T20:45:56.202Z,6.40
2022-08-05T20:48:26.728Z,5.23
2022-08-05T20:51:08.002Z,5.20
2022-08-05T20:53:40.960Z,5.73
2022-08-05T20:56:13.213Z,5.17
2022-08-05T20:58:43.828Z,5.43
2022-08-05T21:01:14.292Z,4.93
2022-08-05T21:03:48.238Z,5.07
2022-08-05T21:06:27.977Z,5.37
2022-08-05T21:08:57.611Z,5.87
2022-08-05T21:12:09.991Z,5.17
2022-08-05T21:14:18.276Z,4.80
2022-08-05T21:16:49.858Z,5.07
2022-08-05T21:19:18.823Z,5.30
2022-08-05T21:21:51.150Z,4.83
2022-08-05T21:24:20.494Z,5.33
2022-08-05T21:26:58.366Z,4.57
2022-08-05T21:29:31.307Z,5.23
2022-08-05T21:32:03.801Z,5.07
2022-08-05T21:34:35.659Z,5.80
2022-08-05T21:37:05.250Z,5.57
2022-08-05T21:39:38.369Z,5.93
2022-08-05T21:42:30.970Z,5.20
2022-08-05T21:44:59.068Z,5.80
2022-08-05T21:47:54.902Z,5.70
2022-08-05T21:50:18.369Z,6.33
2022-08-05T21:52:47.535Z,5.50
2022-08-05T21:55:17.494Z,6.10
2022-08-05T21:57:46.494Z,5.67
2022-08-05T22:00:16.131Z,6.10
2022-08-05T22:02:46.857Z,5.30
2022-08-05T22:05:15.955Z,5.50
2022-08-05T22:07:58.855Z,5.30
2022-08-05T22:10:31.469Z,6.30
2022-08-05T22:14:06.121Z,5.90
2022-08-05T22:16:01.027Z,6.83
2022-08-05T22:18:39.036Z,5.90
2022-08-05T22:21:11.224Z,6.30
2022-08-05T22:24:09.117Z,7.03
2022-08-05T22:26:59.919Z,6.37
2022-08-05T22:29:30.833Z,6.67
2022-08-05T22:32:03.092Z,7.10
2022-08-05T22:34:34.407Z,6.33
2022-08-05T22:37:05.052Z,6.73
2022-08-05T22:39:34.755Z,5.70
2022-08-05T22:42:25.347Z,6.37
2022-08-05T22:44:56.332Z,6.57
2022-08-05T22:47:29.857Z,5.80
2022-08-05T22:50:20.556Z,5.63
2022-08-05T22:52:52.387Z,5.40
2022-08-05T22:55:21.947Z,5.83
2022-08-05T22:57:51.426Z,5.20
2022-08-05T23:00:22.022Z,5.33
2022-08-05T23:02:52.407Z,5.77
2022-08-05T23:05:23.576Z,5.60
2022-08-05T23:07:53.564Z,5.50
2022-08-05T23:10:23.856Z,6.13
2022-08-05T23:12:55.594Z,5.70
2022-08-05T23:15:26.998Z,5.93
2022-08-05T23:18:03.336Z,5.60
2022-08-05T23:20:37.250Z,5.77
2022-08-05T23:23:08.186Z,6.13
2022-08-05T23:25:53.362Z,6.30
2022-08-05T23:28:28.685Z,5.40
2022-08-05T23:31:16.522Z,6.90
2022-08-05T23:34:03.063Z,7.00
2022-08-05T23:36:40.103Z,6.80
2022-08-05T23:39:17.640Z,6.70
2022-08-05T23:42:01.308Z,7.57
2022-08-05T23:44:32.394Z,7.90
2022-08-05T23:47:02.514Z,7.27
2022-08-05T23:49:45.728Z,8.30
2022-08-05T23:52:30.751Z,7.83
2022-08-05T23:55:05.247Z,7.30
2022-08-05T23:57:36.605Z,7.93
